Time;durP1;ratioP1;P1;durP2;ratioP2;P2;SDS_P1;SDS_P2;PMS_P1;PMS_P2;Temp;Humidity;BMP_temperature;BMP_pressure;BME280_temperature;BME280_humidity;BME280_pressure;Samples;Min_cycle;Max_cycle;Signal;HPM_P1;HPM_P2
2022/08/16 00:00:13;;;;;;;9.95;7.80;;;;;;;;;;4997184;28;20156;-86
2022/08/16 00:02:38;;;;;;;12.02;7.82;;;;;;;;;;4999885;28;20033;-84
2022/08/16 00:05:06;;;;;;;9.13;7.90;;;;;;;;;;4999224;28;20393;-84
2022/08/16 00:07:32;;;;;;;10.68;7.80;;;;;;;;;;5005233;28;20433;-84
2022/08/16 00:09:58;;;;;;;9.23;7.18;;;;;;;;;;5002362;28;20076;-84
2022/08/16 00:12:25;;;;;;;9.63;7.03;;;;;;;;;;4999777;28;20096;-84
2022/08/16 00:14:50;;;;;;;10.07;6.57;;;;;;;;;;4997477;28;20097;-83
2022/08/16 00:17:16;;;;;;;11.00;6.75;;;;;;;;;;5000093;28;20114;-84
2022/08/16 00:19:41;;;;;;;8.07;6.80;;;;;;;;;;5002671;28;20026;-84
2022/08/16 00:22:07;;;;;;;7.53;6.55;;;;;;;;;;5004187;28;20026;-84
2022/08/16 00:24:33;;;;;;;8.10;5.60;;;;;;;;;;5004643;28;20037;-83
2022/08/16 00:26:59;;;;;;;7.43;5.88;;;;;;;;;;4997341;28;20030;-83
2022/08/16 00:29:25;;;;;;;10.15;6.07;;;;;;;;;;4998344;28;20027;-85
2022/08/16 00:31:51;;;;;;;8.65;6.35;;;;;;;;;;5003036;28;20462;-85
2022/08/16 00:34:17;;;;;;;9.70;7.13;;;;;;;;;;4997149;28;20068;-84
2022/08/16 00:36:45;;;;;;;9.05;7.15;;;;;;;;;;5006907;28;20028;-84
2022/08/16 00:39:14;;;;;;;9.90;7.30;;;;;;;;;;5001384;28;20531;-83
2022/08/16 00:41:42;;;;;;;9.57;7.15;;;;;;;;;;4997870;28;20475;-83
2022/08/16 00:44:10;;;;;;;10.43;6.22;;;;;;;;;;5001017;28;20052;-85
2022/08/16 00:46:50;;;;;;;11.45;7.97;;;;;;;;;;5004203;28;20068;-84
2022/08/16 00:49:16;;;;;;;10.07;7.57;;;;;;;;;;4992709;28;20041;-84
2022/08/16 00:51:42;;;;;;;11.38;7.88;;;;;;;;;;5005015;28;20483;-84
2022/08/16 00:54:08;;;;;;;11.23;9.20;;;;;;;;;;5002754;28;20069;-84
2022/08/16 00:56:37;;;;;;;9.93;7.90;;;;;;;;;;5004691;28;20045;-84
2022/08/16 00:59:04;;;;;;;10.63;7.72;;;;;;;;;;5003277;28;20034;-84
2022/08/16 01:01:31;;;;;;;10.82;8.48;;;;;;;;;;5001054;28;20045;-84
2022/08/16 01:03:58;;;;;;;9.55;8.40;;;;;;;;;;5000944;28;20041;-84
2022/08/16 01:06:24;;;;;;;10.80;8.63;;;;;;;;;;4998088;28;20072;-84
2022/08/16 01:08:53;;;;;;;12.75;8.48;;;;;;;;;;5004199;28;20022;-85
2022/08/16 01:11:21;;;;;;;10.40;8.07;;;;;;;;;;4997640;28;20041;-84
2022/08/16 01:13:49;;;;;;;12.93;9.13;;;;;;;;;;4997359;28;20038;-84
2022/08/16 01:16:23;;;;;;;9.27;7.82;;;;;;;;;;4999928;28;20587;-84
2022/08/16 01:19:00;;;;;;;11.50;8.52;;;;;;;;;;4992433;28;20030;-84
2022/08/16 01:21:46;;;;;;;11.60;8.65;;;;;;;;;;4993620;28;20390;-83
2022/08/16 01:24:26;;;;;;;10.57;8.70;;;;;;;;;;4993537;28;20026;-85
2022/08/16 01:27:02;;;;;;;10.60;8.82;;;;;;;;;;5000019;28;20041;-83
2022/08/16 01:29:35;;;;;;;11.43;8.20;;;;;;;;;;5006025;28;20034;-84
2022/08/16 01:32:00;;;;;;;11.77;9.50;;;;;;;;;;4999101;28;20387;-84
2022/08/16 01:34:26;;;;;;;15.88;10.32;;;;;;;;;;4995830;28;20027;-83
2022/08/16 01:37:18;;;;;;;13.50;10.95;;;;;;;;;;5000193;28;20072;-83
2022/08/16 01:39:43;;;;;;;11.88;9.02;;;;;;;;;;4994268;28;20204;-84
2022/08/16 01:42:10;;;;;;;11.90;9.40;;;;;;;;;;4997879;28;20514;-83
2022/08/16 01:44:37;;;;;;;11.25;9.13;;;;;;;;;;4998290;28;20030;-84
2022/08/16 01:47:04;;;;;;;11.05;8.13;;;;;;;;;;4994946;28;20023;-84
2022/08/16 01:49:33;;;;;;;12.13;8.73;;;;;;;;;;4993246;28;20029;-84
2022/08/16 01:52:04;;;;;;;12.05;8.90;;;;;;;;;;4997876;28;20226;-84
2022/08/16 01:54:30;;;;;;;10.50;9.23;;;;;;;;;;4999472;28;20050;-84
2022/08/16 01:56:56;;;;;;;13.15;8.77;;;;;;;;;;4998225;28;20030;-84
2022/08/16 01:59:22;;;;;;;10.48;8.85;;;;;;;;;;4995992;28;20420;-84
2022/08/16 02:01:49;;;;;;;11.50;8.73;;;;;;;;;;4995437;28;20023;-84
2022/08/16 02:04:16;;;;;;;11.88;8.77;;;;;;;;;;5000181;28;20030;-85
2022/08/16 02:06:42;;;;;;;10.63;9.10;;;;;;;;;;4995487;28;20077;-83
2022/08/16 02:09:09;;;;;;;12.00;8.90;;;;;;;;;;4999151;28;20026;-82
2022/08/16 02:11:37;;;;;;;11.98;10.10;;;;;;;;;;5002584;28;20058;-84
2022/08/16 02:14:03;;;;;;;13.73;9.18;;;;;;;;;;5001569;28;20105;-85
2022/08/16 02:16:29;;;;;;;13.40;10.52;;;;;;;;;;4994108;28;20109;-85
2022/08/16 02:18:54;;;;;;;16.08;10.65;;;;;;;;;;4994021;28;20467;-84
2022/08/16 02:21:20;;;;;;;12.70;9.65;;;;;;;;;;4998474;28;20030;-84
2022/08/16 02:23:46;;;;;;;12.45;10.32;;;;;;;;;;4994089;28;20062;-84
2022/08/16 02:26:13;;;;;;;12.75;10.23;;;;;;;;;;4999110;28;20054;-83
2022/08/16 02:28:40;;;;;;;13.02;11.23;;;;;;;;;;4992905;28;20026;-85
2022/08/16 02:31:09;;;;;;;14.68;11.13;;;;;;;;;;4995934;28;20062;-82
2022/08/16 02:33:35;;;;;;;13.77;11.07;;;;;;;;;;4996146;28;20042;-83
2022/08/16 02:36:01;;;;;;;15.70;12.73;;;;;;;;;;4994801;28;20386;-84
2022/08/16 02:38:28;;;;;;;14.30;11.27;;;;;;;;;;4996946;28;20121;-83
2022/08/16 02:40:55;;;;;;;14.23;11.68;;;;;;;;;;4996694;28;20026;-83
2022/08/16 02:43:26;;;;;;;13.55;11.38;;;;;;;;;;4997968;28;20022;-83
2022/08/16 02:45:51;;;;;;;13.82;11.00;;;;;;;;;;4999294;28;20037;-84
2022/08/16 02:48:17;;;;;;;14.07;12.10;;;;;;;;;;5000047;28;20026;-84
2022/08/16 02:50:42;;;;;;;15.40;11.70;;;;;;;;;;5007508;28;20049;-83
2022/08/16 02:53:07;;;;;;;14.57;11.40;;;;;;;;;;5001763;28;20034;-83
2022/08/16 02:55:33;;;;;;;13.68;11.23;;;;;;;;;;5003901;28;20160;-82
2022/08/16 02:57:58;;;;;;;14.73;11.90;;;;;;;;;;5002959;28;20027;-83
2022/08/16 03:00:24;;;;;;;14.10;11.80;;;;;;;;;;4999602;28;20474;-85
2022/08/16 03:02:52;;;;;;;14.43;11.52;;;;;;;;;;5002890;28;20030;-84
2022/08/16 03:05:18;;;;;;;14.05;11.55;;;;;;;;;;5005527;28;20390;-83
2022/08/16 03:07:43;;;;;;;13.80;11.68;;;;;;;;;;5007234;28;20022;-84
2022/08/16 03:10:11;;;;;;;15.65;11.25;;;;;;;;;;5002115;28;20050;-85
2022/08/16 03:12:37;;;;;;;12.90;10.45;;;;;;;;;;5002790;28;20446;-85
2022/08/16 03:15:05;;;;;;;13.63;11.18;;;;;;;;;;4998458;28;20206;-84
2022/08/16 03:17:31;;;;;;;15.15;11.07;;;;;;;;;;4996964;28;20446;-84
2022/08/16 03:19:57;;;;;;;15.10;11.30;;;;;;;;;;4995937;28;20026;-84
2022/08/16 03:22:22;;;;;;;14.00;11.05;;;;;;;;;;5000753;28;20040;-85
2022/08/16 03:24:48;;;;;;;16.63;11.52;;;;;;;;;;5003732;28;20030;-85
2022/08/16 03:27:13;;;;;;;15.02;11.20;;;;;;;;;;5004881;28;20038;-86
2022/08/16 03:29:39;;;;;;;14.52;11.70;;;;;;;;;;5006127;28;20434;-85
2022/08/16 03:32:05;;;;;;;14.05;11.15;;;;;;;;;;5001815;28;20453;-85
2022/08/16 03:34:33;;;;;;;14.32;11.45;;;;;;;;;;4998707;28;20057;-85
2022/08/16 03:37:00;;;;;;;13.68;10.35;;;;;;;;;;4998830;28;20069;-84
2022/08/16 03:39:27;;;;;;;13.63;10.27;;;;;;;;;;4997921;28;20038;-84
2022/08/16 03:41:52;;;;;;;12.52;10.25;;;;;;;;;;4994079;28;20033;-84
2022/08/16 03:44:19;;;;;;;12.93;10.30;;;;;;;;;;4996692;28;20027;-83
2022/08/16 03:46:45;;;;;;;11.57;9.27;;;;;;;;;;5006767;28;20031;-83
2022/08/16 03:49:11;;;;;;;14.48;9.45;;;;;;;;;;4996999;28;20076;-84
2022/08/16 03:51:38;;;;;;;12.68;10.57;;;;;;;;;;5007852;28;20493;-85
2022/08/16 03:54:04;;;;;;;12.77;9.68;;;;;;;;;;5002048;28;20054;-85
2022/08/16 03:56:29;;;;;;;11.25;8.85;;;;;;;;;;5001717;28;20490;-83
2022/08/16 03:58:55;;;;;;;10.77;9.07;;;;;;;;;;5002127;28;20026;-83
2022/08/16 04:01:22;;;;;;;12.25;9.90;;;;;;;;;;5000848;28;20030;-84
2022/08/16 04:03:49;;;;;;;10.63;9.02;;;;;;;;;;4998981;28;20022;-83
2022/08/16 04:06:14;;;;;;;11.20;8.98;;;;;;;;;;5004036;28;20458;-83
2022/08/16 04:08:39;;;;;;;12.05;8.50;;;;;;;;;;4997849;28;20050;-83
2022/08/16 04:11:05;;;;;;;10.95;8.80;;;;;;;;;;5000120;28;20106;-84
2022/08/16 04:13:30;;;;;;;14.30;9.70;;;;;;;;;;5004451;28;20029;-83
2022/08/16 04:15:58;;;;;;;12.68;9.02;;;;;;;;;;4994983;28;20050;-83
2022/08/16 04:18:24;;;;;;;11.55;8.82;;;;;;;;;;5003285;28;20554;-84
2022/08/16 04:20:50;;;;;;;11.77;8.50;;;;;;;;;;5005551;28;20489;-84
2022/08/16 04:23:16;;;;;;;10.48;9.35;;;;;;;;;;5004726;28;20019;-84
2022/08/16 04:25:42;;;;;;;11.52;9.38;;;;;;;;;;5007171;28;20025;-84
2022/08/16 04:28:08;;;;;;;11.70;8.90;;;;;;;;;;5004246;28;20433;-84
2022/08/16 04:30:33;;;;;;;11.93;9.23;;;;;;;;;;4997409;28;20052;-84
2022/08/16 04:32:59;;;;;;;12.15;8.98;;;;;;;;;;5001164;28;20029;-86
2022/08/16 04:35:25;;;;;;;12.02;9.32;;;;;;;;;;4994480;28;20858;-83
2022/08/16 04:37:51;;;;;;;10.52;8.38;;;;;;;;;;5005431;28;20061;-84
2022/08/16 04:40:18;;;;;;;10.25;7.93;;;;;;;;;;5004138;28;20037;-82
2022/08/16 04:42:44;;;;;;;10.63;8.52;;;;;;;;;;5006148;28;20072;-84
2022/08/16 04:45:12;;;;;;;10.82;8.70;;;;;;;;;;4998156;28;20022;-83
2022/08/16 04:47:39;;;;;;;11.38;9.20;;;;;;;;;;4993677;28;20355;-85
2022/08/16 04:50:14;;;;;;;12.95;8.77;;;;;;;;;;4999562;28;20041;-86
2022/08/16 04:52:39;;;;;;;12.02;9.80;;;;;;;;;;4994689;28;20031;-85
2022/08/16 04:55:12;;;;;;;11.73;9.07;;;;;;;;;;4993052;28;20041;-85
2022/08/16 04:57:39;;;;;;;11.75;8.95;;;;;;;;;;4997118;28;20023;-84
2022/08/16 05:00:11;;;;;;;12.02;8.88;;;;;;;;;;4994028;28;20364;-82
2022/08/16 05:02:38;;;;;;;10.95;9.27;;;;;;;;;;4994008;28;20030;-84
2022/08/16 05:05:04;;;;;;;11.45;9.50;;;;;;;;;;5004440;28;20087;-85
2022/08/16 05:07:30;;;;;;;10.73;9.60;;;;;;;;;;5003960;28;20036;-84
2022/08/16 05:09:55;;;;;;;11.48;9.52;;;;;;;;;;4995923;28;20026;-84
2022/08/16 05:12:20;;;;;;;13.23;10.02;;;;;;;;;;4994744;28;20360;-83
2022/08/16 05:14:46;;;;;;;12.35;9.55;;;;;;;;;;4998701;28;20065;-83
2022/08/16 05:17:11;;;;;;;11.52;9.27;;;;;;;;;;4995358;28;20022;-86
2022/08/16 05:19:37;;;;;;;12.07;9.38;;;;;;;;;;4993135;28;20382;-84
2022/08/16 05:22:03;;;;;;;15.68;10.70;;;;;;;;;;4999811;28;20017;-83
2022/08/16 05:24:29;;;;;;;13.30;10.20;;;;;;;;;;4994301;28;20036;-83
2022/08/16 05:26:54;;;;;;;13.82;11.02;;;;;;;;;;5000458;28;20101;-85
2022/08/16 05:29:19;;;;;;;19.23;11.55;;;;;;;;;;5002073;28;20105;-84
2022/08/16 05:31:45;;;;;;;18.40;12.32;;;;;;;;;;4996853;28;20480;-84
2022/08/16 05:34:10;;;;;;;15.18;11.73;;;;;;;;;;4999746;28;20443;-84
2022/08/16 05:36:36;;;;;;;16.13;11.73;;;;;;;;;;4994815;28;20109;-84
2022/08/16 05:39:04;;;;;;;14.95;11.30;;;;;;;;;;4999607;28;20028;-83
2022/08/16 05:41:29;;;;;;;15.90;11.45;;;;;;;;;;4997925;28;20230;-87
2022/08/16 05:43:55;;;;;;;15.55;12.18;;;;;;;;;;4993808;28;20541;-84
2022/08/16 05:46:20;;;;;;;17.95;12.93;;;;;;;;;;4997425;28;20427;-83
2022/08/16 05:48:46;;;;;;;16.88;13.32;;;;;;;;;;4995526;28;20130;-84
2022/08/16 05:51:12;;;;;;;16.23;12.35;;;;;;;;;;4994886;28;20359;-83
2022/08/16 05:53:37;;;;;;;21.15;14.30;;;;;;;;;;4997132;28;20141;-84
2022/08/16 05:56:03;;;;;;;18.50;14.82;;;;;;;;;;4993262;28;20038;-84
2022/08/16 05:58:28;;;;;;;20.10;15.52;;;;;;;;;;5000722;28;20390;-83
2022/08/16 06:00:55;;;;;;;22.83;14.50;;;;;;;;;;5000404;28;20118;-83
2022/08/16 06:03:20;;;;;;;18.17;15.02;;;;;;;;;;4999612;28;20025;-83
2022/08/16 06:05:46;;;;;;;19.48;14.43;;;;;;;;;;5004111;28;20038;-83
2022/08/16 06:08:11;;;;;;;23.23;14.20;;;;;;;;;;4997972;28;20556;-83
2022/08/16 06:10:36;;;;;;;16.40;13.05;;;;;;;;;;4996993;28;20113;-83
2022/08/16 06:13:02;;;;;;;19.13;14.10;;;;;;;;;;5000947;28;20037;-83
2022/08/16 06:15:27;;;;;;;18.75;13.27;;;;;;;;;;4995304;28;20054;-84
2022/08/16 06:17:53;;;;;;;18.27;14.38;;;;;;;;;;4999343;28;20037;-83
2022/08/16 06:20:22;;;;;;;20.10;13.73;;;;;;;;;;4999860;28;20029;-84
2022/08/16 06:22:49;;;;;;;15.63;11.83;;;;;;;;;;5007881;28;20106;-83
2022/08/16 06:25:15;;;;;;;14.13;12.43;;;;;;;;;;5011453;28;20390;-82
2022/08/16 06:27:40;;;;;;;16.40;12.40;;;;;;;;;;5003029;28;20030;-84
2022/08/16 06:30:08;;;;;;;14.40;10.98;;;;;;;;;;5005478;28;20494;-82
2022/08/16 06:32:33;;;;;;;20.63;12.65;;;;;;;;;;4998084;28;20054;-82
2022/08/16 06:34:59;;;;;;;15.20;10.95;;;;;;;;;;5007400;28;20056;-83
2022/08/16 06:37:25;;;;;;;16.45;12.23;;;;;;;;;;5001871;28;20031;-83
2022/08/16 06:39:51;;;;;;;17.67;12.07;;;;;;;;;;5004935;28;20026;-83
2022/08/16 06:42:17;;;;;;;14.05;11.55;;;;;;;;;;5000807;28;20390;-83
2022/08/16 06:44:42;;;;;;;20.77;12.43;;;;;;;;;;5005952;28;20084;-83
2022/08/16 06:47:08;;;;;;;20.83;12.40;;;;;;;;;;5000900;28;20037;-83
2022/08/16 06:49:33;;;;;;;13.85;11.18;;;;;;;;;;4998241;28;20056;-84
2022/08/16 06:51:59;;;;;;;14.18;11.20;;;;;;;;;;5003277;28;20050;-84
2022/08/16 06:54:24;;;;;;;14.88;11.80;;;;;;;;;;5005154;28;20045;-85
2022/08/16 06:56:49;;;;;;;13.02;10.75;;;;;;;;;;4999035;28;20022;-84
2022/08/16 06:59:15;;;;;;;15.18;11.45;;;;;;;;;;5000511;28;20081;-85
2022/08/16 07:01:40;;;;;;;13.32;11.18;;;;;;;;;;5002527;28;20021;-84
2022/08/16 07:04:06;;;;;;;12.35;10.13;;;;;;;;;;5003293;28;20034;-84
2022/08/16 07:06:31;;;;;;;13.45;11.45;;;;;;;;;;5001092;28;20091;-85
2022/08/16 07:08:57;;;;;;;13.30;10.70;;;;;;;;;;5004902;28;20029;-84
2022/08/16 07:11:25;;;;;;;16.75;11.05;;;;;;;;;;4995828;28;20479;-84
2022/08/16 07:13:51;;;;;;;15.13;11.57;;;;;;;;;;4995031;28;20033;-82
2022/08/16 07:16:17;;;;;;;14.30;10.90;;;;;;;;;;4997550;28;20416;-82
2022/08/16 07:18:44;;;;;;;15.02;11.00;;;;;;;;;;4994597;28;20074;-83
2022/08/16 07:21:11;;;;;;;16.38;10.43;;;;;;;;;;5005767;28;20040;-84
2022/08/16 07:23:38;;;;;;;14.23;10.68;;;;;;;;;;4999444;28;20034;-87
2022/08/16 07:26:08;;;;;;;15.32;10.05;;;;;;;;;;4995799;28;20386;-87
2022/08/16 07:28:34;;;;;;;12.70;9.95;;;;;;;;;;5002878;28;20385;-85
2022/08/16 07:31:03;;;;;;;13.57;10.18;;;;;;;;;;4999859;28;20025;-86
2022/08/16 07:33:34;;;;;;;13.43;9.82;;;;;;;;;;4998716;28;20034;-84
2022/08/16 07:35:59;;;;;;;16.83;10.05;;;;;;;;;;5006699;28;20044;-84
2022/08/16 07:38:26;;;;;;;10.20;9.07;;;;;;;;;;5003620;28;20022;-85
2022/08/16 07:40:53;;;;;;;12.60;8.90;;;;;;;;;;5003572;28;20101;-84
2022/08/16 07:43:20;;;;;;;13.30;10.65;;;;;;;;;;4999532;28;20057;-85
2022/08/16 07:45:45;;;;;;;13.90;9.95;;;;;;;;;;5005423;28;20038;-84
2022/08/16 07:48:11;;;;;;;12.20;9.63;;;;;;;;;;4997408;28;20014;-85
2022/08/16 07:50:36;;;;;;;15.77;9.52;;;;;;;;;;4999711;28;20121;-84
2022/08/16 07:53:02;;;;;;;11.93;9.35;;;;;;;;;;4999964;28;20057;-86
2022/08/16 07:55:27;;;;;;;12.10;9.68;;;;;;;;;;5002846;28;20088;-86
2022/08/16 07:57:53;;;;;;;16.00;10.35;;;;;;;;;;5001879;28;20172;-87
2022/08/16 08:00:18;;;;;;;15.02;10.23;;;;;;;;;;5001510;28;20026;-88
2022/08/16 08:02:46;;;;;;;13.48;9.77;;;;;;;;;;5001683;28;20030;-86
2022/08/16 08:05:14;;;;;;;11.20;9.98;;;;;;;;;;4997106;28;20382;-84
2022/08/16 08:07:40;;;;;;;13.95;10.05;;;;;;;;;;5001416;28;20453;-85
2022/08/16 08:10:06;;;;;;;16.02;10.25;;;;;;;;;;4999811;28;20029;-85
2022/08/16 08:12:32;;;;;;;19.65;9.95;;;;;;;;;;5002242;28;20121;-86
2022/08/16 08:14:58;;;;;;;12.98;9.57;;;;;;;;;;4999741;28;20036;-87
2022/08/16 08:17:24;;;;;;;15.75;10.18;;;;;;;;;;5004060;28;20026;-86
2022/08/16 08:19:49;;;;;;;15.63;10.50;;;;;;;;;;4999176;28;20036;-84
2022/08/16 08:22:15;;;;;;;15.07;10.70;;;;;;;;;;5003561;28;20383;-83
2022/08/16 08:24:40;;;;;;;15.98;11.05;;;;;;;;;;5002309;28;20478;-85
2022/08/16 08:27:07;;;;;;;13.70;10.10;;;;;;;;;;5001634;28;20034;-81
2022/08/16 08:29:35;;;;;;;14.23;11.60;;;;;;;;;;4997646;28;20030;-81
2022/08/16 08:32:01;;;;;;;15.80;10.13;;;;;;;;;;5004511;28;20459;-81
2022/08/16 08:34:27;;;;;;;14.27;11.38;;;;;;;;;;4995249;28;20021;-81
2022/08/16 08:36:53;;;;;;;12.38;10.35;;;;;;;;;;5000690;28;20450;-80
2022/08/16 08:39:18;;;;;;;14.30;10.82;;;;;;;;;;4997294;28;20505;-80
2022/08/16 08:41:44;;;;;;;13.82;11.02;;;;;;;;;;4998848;28;20018;-80
2022/08/16 08:44:11;;;;;;;10.52;9.43;;;;;;;;;;4995339;28;20022;-81
2022/08/16 08:46:36;;;;;;;13.27;9.77;;;;;;;;;;4993475;28;20038;-82
2022/08/16 08:49:02;;;;;;;20.25;11.32;;;;;;;;;;4992201;28;20030;-79
2022/08/16 08:51:29;;;;;;;16.50;10.95;;;;;;;;;;4993987;28;20543;-80
2022/08/16 08:53:54;;;;;;;13.15;10.55;;;;;;;;;;4991501;28;21335;-80
2022/08/16 08:56:20;;;;;;;13.07;9.77;;;;;;;;;;4992752;28;20030;-84
2022/08/16 08:58:45;;;;;;;15.00;10.80;;;;;;;;;;4992973;28;20426;-84
2022/08/16 09:01:10;;;;;;;10.85;9.30;;;;;;;;;;4996474;28;20030;-84
2022/08/16 09:03:38;;;;;;;11.27;9.60;;;;;;;;;;4996884;28;20019;-85
2022/08/16 09:06:04;;;;;;;12.77;9.23;;;;;;;;;;5009269;28;20031;-87
2022/08/16 09:08:31;;;;;;;14.82;10.88;;;;;;;;;;4999460;28;20026;-85
2022/08/16 09:10:57;;;;;;;12.20;8.85;;;;;;;;;;5001568;28;20386;-85
2022/08/16 09:13:24;;;;;;;12.55;9.52;;;;;;;;;;4996691;28;20470;-85
2022/08/16 09:15:52;;;;;;;13.00;8.48;;;;;;;;;;5002343;28;20050;-82
2022/08/16 09:18:18;;;;;;;7.07;5.97;;;;;;;;;;4997778;28;20022;-85
2022/08/16 09:20:45;;;;;;;6.78;5.72;;;;;;;;;;5000897;28;20475;-83
2022/08/16 09:23:12;;;;;;;8.45;5.57;;;;;;;;;;5001970;28;20026;-85
2022/08/16 09:25:37;;;;;;;6.30;5.68;;;;;;;;;;5005777;28;20038;-83
2022/08/16 09:28:04;;;;;;;6.65;5.68;;;;;;;;;;4997996;28;20100;-84
2022/08/16 09:30:30;;;;;;;8.73;6.40;;;;;;;;;;4996365;28;20038;-82
2022/08/16 09:32:56;;;;;;;7.10;5.85;;;;;;;;;;4995041;28;20479;-84
2022/08/16 09:35:21;;;;;;;6.22;5.60;;;;;;;;;;5000801;28;20088;-83
2022/08/16 09:37:47;;;;;;;7.65;5.70;;;;;;;;;;5001403;28;20080;-82
2022/08/16 09:40:13;;;;;;;6.95;5.93;;;;;;;;;;4998734;28;20033;-84
2022/08/16 09:42:39;;;;;;;9.65;6.28;;;;;;;;;;4997950;28;20152;-85
2022/08/16 09:45:07;;;;;;;7.00;6.15;;;;;;;;;;4998815;28;20513;-84
2022/08/16 09:47:39;;;;;;;8.60;5.50;;;;;;;;;;4999913;28;20082;-83
2022/08/16 09:50:13;;;;;;;6.25;5.03;;;;;;;;;;4996900;28;20793;-83
2022/08/16 09:52:39;;;;;;;6.15;4.95;;;;;;;;;;4993368;28;20026;-83
2022/08/16 09:55:08;;;;;;;5.97;5.30;;;;;;;;;;4998183;28;20030;-85
2022/08/16 09:57:34;;;;;;;;;;;;;;;;;;5001516;28;20030;-85
2022/08/16 10:00:00;;;;;;;7.10;5.63;;;;;;;;;;5002388;28;19924;-85
2022/08/16 10:02:27;;;;;;;6.82;5.68;;;;;;;;;;5002230;28;20023;-84
2022/08/16 10:04:52;;;;;;;5.93;5.28;;;;;;;;;;5004298;28;20034;-85
2022/08/16 10:07:18;;;;;;;7.00;5.93;;;;;;;;;;4996817;28;20356;-86
2022/08/16 10:09:44;;;;;;;6.55;5.85;;;;;;;;;;5015110;28;20097;-88
2022/08/16 10:14:54;;;;;;;6.90;5.32;;;;;;;;;;4997919;28;20503;-85
2022/08/16 10:17:20;;;;;;;8.85;5.43;;;;;;;;;;4998005;28;20030;-85
2022/08/16 10:19:46;;;;;;;9.38;6.00;;;;;;;;;;4997577;28;20026;-86
2022/08/16 10:22:12;;;;;;;7.00;5.10;;;;;;;;;;4997481;28;20033;-85
2022/08/16 10:24:39;;;;;;;9.02;5.30;;;;;;;;;;4996736;28;20034;-85
2022/08/16 10:27:05;;;;;;;5.43;4.93;;;;;;;;;;4999250;28;20058;-84
2022/08/16 10:29:31;;;;;;;5.45;4.30;;;;;;;;;;5017693;28;20021;-85
2022/08/16 10:31:57;;;;;;;6.78;5.82;;;;;;;;;;4999480;28;20022;-84
2022/08/16 10:34:23;;;;;;;7.85;5.03;;;;;;;;;;5003185;28;20041;-85
2022/08/16 10:36:49;;;;;;;5.60;4.40;;;;;;;;;;4997230;28;20027;-85
2022/08/16 10:39:17;;;;;;;6.95;5.03;;;;;;;;;;5018444;28;20526;-87
2022/08/16 10:41:43;;;;;;;6.00;4.55;;;;;;;;;;4998783;28;20034;-86
2022/08/16 10:44:09;;;;;;;5.57;5.00;;;;;;;;;;4999970;28;20034;-85
2022/08/16 10:46:35;;;;;;;5.88;4.72;;;;;;;;;;5004347;28;20036;-86
2022/08/16 10:49:03;;;;;;;5.13;4.40;;;;;;;;;;5002687;28;20033;-84
2022/08/16 10:51:30;;;;;;;5.93;4.15;;;;;;;;;;5002043;28;20026;-85
2022/08/16 10:53:57;;;;;;;7.20;4.18;;;;;;;;;;5003544;28;20387;-85
2022/08/16 10:56:24;;;;;;;7.50;4.60;;;;;;;;;;5018042;28;20394;-84
2022/08/16 10:58:56;;;;;;;5.40;4.28;;;;;;;;;;5000616;28;20030;-86
2022/08/16 11:01:24;;;;;;;5.30;4.80;;;;;;;;;;5003339;28;20120;-86
2022/08/16 11:03:51;;;;;;;6.03;4.00;;;;;;;;;;5004130;28;20023;-87
2022/08/16 11:06:18;;;;;;;5.97;4.22;;;;;;;;;;5000432;28;20033;-86
2022/08/16 11:08:44;;;;;;;5.57;4.70;;;;;;;;;;5018121;28;20041;-84
2022/08/16 11:11:13;;;;;;;5.38;4.43;;;;;;;;;;5018933;28;20116;-85
2022/08/16 11:13:44;;;;;;;4.40;3.70;;;;;;;;;;5003822;28;20029;-85
2022/08/16 11:16:10;;;;;;;6.35;4.18;;;;;;;;;;5002773;28;20026;-85
2022/08/16 11:18:36;;;;;;;4.60;4.13;;;;;;;;;;5024118;28;20036;-86
2022/08/16 11:21:01;;;;;;;5.03;4.53;;;;;;;;;;5003874;28;20438;-85
2022/08/16 11:23:27;;;;;;;6.13;4.80;;;;;;;;;;5001480;28;20029;-86
2022/08/16 11:25:55;;;;;;;7.07;5.25;;;;;;;;;;5005506;28;20034;-84
2022/08/16 11:28:21;;;;;;;5.25;4.40;;;;;;;;;;5003457;28;20437;-84
2022/08/16 11:30:47;;;;;;;5.40;4.32;;;;;;;;;;5006392;28;20105;-81
2022/08/16 11:33:12;;;;;;;6.25;4.50;;;;;;;;;;5001885;28;20066;-84
2022/08/16 11:35:39;;;;;;;5.40;4.35;;;;;;;;;;4999467;28;20169;-83
2022/08/16 11:38:09;;;;;;;7.25;5.07;;;;;;;;;;5004482;28;20117;-85
2022/08/16 11:40:40;;;;;;;5.97;4.85;;;;;;;;;;5006504;28;20084;-83
2022/08/16 11:43:06;;;;;;;6.72;4.60;;;;;;;;;;5009595;28;20378;-87
2022/08/16 11:45:34;;;;;;;6.82;4.82;;;;;;;;;;5001635;28;20086;-86
2022/08/16 11:48:00;;;;;;;6.15;4.03;;;;;;;;;;5003146;28;20027;-83
2022/08/16 11:50:26;;;;;;;7.63;4.15;;;;;;;;;;5006097;28;20517;-85
2022/08/16 11:52:51;;;;;;;3.75;3.35;;;;;;;;;;5001893;28;20046;-83
2022/08/16 11:55:17;;;;;;;4.80;3.88;;;;;;;;;;5005606;28;20483;-85
2022/08/16 11:57:43;;;;;;;5.70;4.10;;;;;;;;;;4997814;28;20386;-84
2022/08/16 12:00:13;;;;;;;6.10;4.63;;;;;;;;;;5000158;28;20109;-82
2022/08/16 12:02:39;;;;;;;6.65;4.43;;;;;;;;;;5007777;28;20037;-84
2022/08/16 12:05:07;;;;;;;7.18;4.45;;;;;;;;;;5002900;28;20030;-86
2022/08/16 12:07:36;;;;;;;4.80;4.35;;;;;;;;;;5001017;28;20095;-87
2022/08/16 12:10:05;;;;;;;4.63;3.45;;;;;;;;;;5001096;28;20042;-86
2022/08/16 12:12:31;;;;;;;4.57;4.05;;;;;;;;;;4995416;28;20080;-84
2022/08/16 12:14:56;;;;;;;5.78;4.13;;;;;;;;;;5002079;28;20038;-83
2022/08/16 12:17:22;;;;;;;4.88;3.50;;;;;;;;;;5003463;28;20057;-84
2022/08/16 12:19:47;;;;;;;3.95;3.22;;;;;;;;;;4992104;28;20533;-85
2022/08/16 12:22:13;;;;;;;5.20;3.65;;;;;;;;;;4997159;28;20023;-82
2022/08/16 12:24:39;;;;;;;3.80;3.42;;;;;;;;;;4996532;28;20096;-84
2022/08/16 12:27:04;;;;;;;6.05;3.88;;;;;;;;;;4994789;28;20109;-83
2022/08/16 12:29:30;;;;;;;4.53;4.07;;;;;;;;;;4996842;28;20040;-85
2022/08/16 12:31:56;;;;;;;5.57;4.15;;;;;;;;;;4995831;28;20037;-84
2022/08/16 12:34:22;;;;;;;4.05;3.60;;;;;;;;;;4998204;28;20085;-84
2022/08/16 12:36:47;;;;;;;7.38;3.55;;;;;;;;;;4997453;28;20046;-84
2022/08/16 12:39:13;;;;;;;5.82;3.47;;;;;;;;;;4999474;28;20022;-86
2022/08/16 12:41:41;;;;;;;5.00;3.90;;;;;;;;;;4999681;28;20386;-85
2022/08/16 12:44:06;;;;;;;3.70;3.22;;;;;;;;;;4996449;28;20089;-85
2022/08/16 12:46:33;;;;;;;4.70;4.13;;;;;;;;;;4990782;28;20031;-84
2022/08/16 12:49:00;;;;;;;4.63;3.20;;;;;;;;;;5004171;28;20398;-87
2022/08/16 12:51:35;;;;;;;5.22;3.97;;;;;;;;;;5007414;28;20522;-87
2022/08/16 12:54:04;;;;;;;4.82;3.70;;;;;;;;;;5002614;28;20071;-86
2022/08/16 12:56:34;;;;;;;4.32;3.92;;;;;;;;;;4999563;28;20033;-86
2022/08/16 12:59:05;;;;;;;5.53;3.63;;;;;;;;;;4996423;28;20029;-85
2022/08/16 13:01:32;;;;;;;5.95;3.78;;;;;;;;;;4999782;28;20107;-86
2022/08/16 13:03:59;;;;;;;4.30;3.90;;;;;;;;;;4999487;28;20030;-84
2022/08/16 13:06:26;;;;;;;6.00;3.55;;;;;;;;;;5001104;28;20029;-84
2022/08/16 13:08:53;;;;;;;5.15;3.72;;;;;;;;;;4996148;28;20046;-84
2022/08/16 13:11:34;;;;;;;5.68;3.40;;;;;;;;;;4996107;28;20471;-84
2022/08/16 13:13:59;;;;;;;4.88;4.00;;;;;;;;;;4995179;28;20475;-83
2022/08/16 13:16:25;;;;;;;3.42;3.00;;;;;;;;;;4999600;28;20021;-86
2022/08/16 13:18:50;;;;;;;4.43;3.33;;;;;;;;;;5001566;28;20021;-85
2022/08/16 13:21:16;;;;;;;4.57;3.35;;;;;;;;;;4996188;28;20391;-82
2022/08/16 13:23:41;;;;;;;6.05;2.80;;;;;;;;;;4998047;28;20033;-86
2022/08/16 13:26:07;;;;;;;4.50;2.80;;;;;;;;;;4995934;28;20022;-86
2022/08/16 13:28:33;;;;;;;3.67;2.60;;;;;;;;;;5000466;28;20029;-86
2022/08/16 13:30:59;;;;;;;4.28;2.58;;;;;;;;;;5003449;28;20032;-84
2022/08/16 13:33:35;;;;;;;4.78;2.45;;;;;;;;;;5001154;28;20029;-84
2022/08/16 13:36:02;;;;;;;7.75;2.97;;;;;;;;;;4993024;28;20019;-84
2022/08/16 13:38:28;;;;;;;3.58;2.10;;;;;;;;;;4997023;28;20367;-86
2022/08/16 13:40:54;;;;;;;5.28;2.70;;;;;;;;;;4993413;28;20076;-86
2022/08/16 13:43:22;;;;;;;5.97;2.90;;;;;;;;;;4993787;28;20026;-85
2022/08/16 13:45:47;;;;;;;7.65;3.38;;;;;;;;;;4996258;28;20125;-86
2022/08/16 13:48:13;;;;;;;5.95;2.60;;;;;;;;;;4996206;28;20104;-86
2022/08/16 13:50:39;;;;;;;3.40;2.47;;;;;;;;;;4993256;28;20030;-85
2022/08/16 13:53:04;;;;;;;3.83;2.70;;;;;;;;;;4998574;28;20030;-86
2022/08/16 13:55:30;;;;;;;6.57;2.55;;;;;;;;;;4997876;28;20367;-84
2022/08/16 13:57:55;;;;;;;4.18;2.42;;;;;;;;;;5000639;28;20030;-86
2022/08/16 14:00:21;;;;;;;7.20;2.50;;;;;;;;;;4995667;28;20122;-85
2022/08/16 14:02:47;;;;;;;5.40;2.40;;;;;;;;;;4998149;28;20018;-85
2022/08/16 14:05:14;;;;;;;6.68;2.40;;;;;;;;;;5001179;28;20022;-86
2022/08/16 14:07:39;;;;;;;3.47;2.53;;;;;;;;;;4997750;28;20030;-84
2022/08/16 14:10:07;;;;;;;6.63;2.85;;;;;;;;;;4998276;28;20363;-84
2022/08/16 14:12:33;;;;;;;5.15;2.92;;;;;;;;;;4994996;28;20026;-86
2022/08/16 14:14:59;;;;;;;4.85;2.72;;;;;;;;;;4998495;28;20475;-84
2022/08/16 14:17:26;;;;;;;5.47;2.55;;;;;;;;;;5002836;28;20026;-86
2022/08/16 14:19:52;;;;;;;4.78;2.80;;;;;;;;;;4999190;28;20049;-83
2022/08/16 14:22:22;;;;;;;5.78;2.40;;;;;;;;;;4995127;28;20104;-83
2022/08/16 14:24:50;;;;;;;4.70;2.70;;;;;;;;;;4991353;28;20029;-84
2022/08/16 14:27:19;;;;;;;4.32;2.78;;;;;;;;;;4995447;28;20037;-83
2022/08/16 14:29:47;;;;;;;3.97;3.17;;;;;;;;;;4996870;28;20027;-81